AFL3500 UNNT-ULLI
Flight info
| Callsign | AFL3500 |
|---|---|
| Flight time | N/A |
| Altitude | 36000 |
| Route | OGAMA1K OGAMA A308 OSNAB R362 KZ A575 UNKIS P982 GIKES N987 POBEM L260 KUKSA P979 UNEBO T927 BLZ L259 PRIBI P979 BEPOL BEPOL1B |
| Aircraft | A321/M-SDE3FGHIRWY/LB1 |
Departure
| Time | 2026-05-06 13:08 |
|---|---|
| Airport | Novosibirsk Tolmachevo Airport (UNNT) |
Arrival
| Time | N/A |
|---|---|
| Airport | Pulkovo Airport (ULLI) |
| Time | Latitude | Longitude | Altitude | Speed | Heading |
|---|---|---|---|---|---|
| 2026-05-06 12:18 | 55.00954 | 82.66402 | 373 ft | 0 kts | 169° |
| 2026-05-06 12:58 | 55.00959 | 82.66401 | 373 ft | 3 kts | 171° |
| 2026-05-06 12:58 | 55.00978 | 82.66398 | 373 ft | 3 kts | 175° |
| 2026-05-06 12:58 | 55.00995 | 82.66395 | 373 ft | 3 kts | 168° |
| 2026-05-06 12:59 | 55.01014 | 82.66388 | 373 ft | 3 kts | 182° |
| 2026-05-06 12:59 | 55.01024 | 82.66389 | 373 ft | 2 kts | 248° |
| 2026-05-06 12:59 | 55.01029 | 82.66413 | 373 ft | 3 kts | 217° |
| 2026-05-06 12:59 | 55.01034 | 82.66416 | 373 ft | 3 kts | 172° |
| 2026-05-06 13:00 | 55.01051 | 82.66410 | 373 ft | 2 kts | 164° |
| 2026-05-06 13:00 | 55.01070 | 82.66404 | 373 ft | 3 kts | 175° |
| 2026-05-06 13:00 | 55.01081 | 82.66402 | 373 ft | 0 kts | 170° |
| 2026-05-06 13:03 | 55.01076 | 82.66403 | 373 ft | 1 kts | 174° |
| 2026-05-06 13:03 | 55.01062 | 82.66406 | 373 ft | 5 kts | 170° |
| 2026-05-06 13:04 | 55.01046 | 82.66480 | 373 ft | 10 kts | 79° |
| 2026-05-06 13:04 | 55.01077 | 82.66617 | 373 ft | 13 kts | 65° |
| 2026-05-06 13:04 | 55.01099 | 82.66786 | 373 ft | 16 kts | 89° |
| 2026-05-06 13:04 | 55.01082 | 82.66980 | 373 ft | 17 kts | 84° |
| 2026-05-06 13:05 | 55.01102 | 82.67202 | 373 ft | 20 kts | 81° |
| 2026-05-06 13:05 | 55.01112 | 82.67414 | 373 ft | 14 kts | 77° |
| 2026-05-06 13:05 | 55.01188 | 82.67531 | 373 ft | 16 kts | 31° |
| 2026-05-06 13:05 | 55.01293 | 82.67636 | 373 ft | 19 kts | 31° |
| 2026-05-06 13:06 | 55.01408 | 82.67759 | 372 ft | 16 kts | 32° |
| 2026-05-06 13:06 | 55.01485 | 82.67763 | 371 ft | 7 kts | 285° |
| 2026-05-06 13:06 | 55.01480 | 82.67661 | 371 ft | 5 kts | 260° |
| 2026-05-06 13:06 | 55.01480 | 82.67660 | 371 ft | 0 kts | 260° |
| 2026-05-06 13:07 | 55.01473 | 82.67591 | 371 ft | 27 kts | 260° |
| 2026-05-06 13:07 | 55.01407 | 82.66853 | 375 ft | 93 kts | 261° |
| 2026-05-06 13:07 | 55.01276 | 82.65417 | 373 ft | 145 kts | 261° |
| 2026-05-06 13:08 | 55.01098 | 82.63442 | 385 ft | 183 kts | 262° |
| 2026-05-06 13:08 | 55.00918 | 82.61205 | 897 ft | 185 kts | 261° |
| 2026-05-06 13:08 | 55.00706 | 82.59010 | 1491 ft | 183 kts | 261° |
| 2026-05-06 13:08 | 55.00502 | 82.56861 | 1938 ft | 181 kts | 262° |
| 2026-05-06 13:09 | 55.00305 | 82.54715 | 2377 ft | 178 kts | 262° |
| 2026-05-06 13:09 | 55.00345 | 82.52593 | 2754 ft | 176 kts | 289° |
| 2026-05-06 13:09 | 55.01034 | 82.50837 | 3130 ft | 179 kts | 314° |
| 2026-05-06 13:09 | 55.01958 | 82.49394 | 3495 ft | 178 kts | 313° |
| 2026-05-06 13:10 | 55.02901 | 82.47896 | 3652 ft | 190 kts | 313° |
| 2026-05-06 13:10 | 55.03911 | 82.46276 | 3789 ft | 205 kts | 313° |
| 2026-05-06 13:10 | 55.04996 | 82.44527 | 3910 ft | 221 kts | 314° |
| 2026-05-06 13:10 | 55.06162 | 82.42646 | 4140 ft | 234 kts | 314° |
| 2026-05-06 13:11 | 55.07407 | 82.40642 | 4407 ft | 250 kts | 314° |
| 2026-05-06 13:11 | 55.08699 | 82.38575 | 4970 ft | 253 kts | 314° |
| 2026-05-06 13:11 | 55.10001 | 82.36482 | 5567 ft | 255 kts | 314° |
| 2026-05-06 13:11 | 55.11305 | 82.34385 | 5938 ft | 260 kts | 314° |
| 2026-05-06 13:12 | 55.12639 | 82.32241 | 6259 ft | 261 kts | 314° |
| 2026-05-06 13:12 | 55.13979 | 82.30076 | 6857 ft | 263 kts | 314° |
| 2026-05-06 13:12 | 55.15325 | 82.27891 | 7421 ft | 265 kts | 314° |
| 2026-05-06 13:12 | 55.16683 | 82.25682 | 7982 ft | 268 kts | 315° |
| 2026-05-06 13:13 | 55.18054 | 82.23446 | 8525 ft | 271 kts | 315° |
| 2026-05-06 13:13 | 55.19441 | 82.21188 | 9051 ft | 274 kts | 315° |
| 2026-05-06 13:13 | 55.20838 | 82.18898 | 9593 ft | 276 kts | 311° |
| 2026-05-06 13:13 | 55.21969 | 82.16187 | 10073 ft | 277 kts | 295° |
| 2026-05-06 13:14 | 55.22774 | 82.13048 | 10289 ft | 291 kts | 292° |
| 2026-05-06 13:14 | 55.23599 | 82.09698 | 10419 ft | 307 kts | 292° |
| 2026-05-06 13:14 | 55.24465 | 82.06163 | 10542 ft | 324 kts | 292° |
| 2026-05-06 13:14 | 55.25371 | 82.02453 | 10674 ft | 339 kts | 292° |
| 2026-05-06 13:15 | 55.26319 | 81.98568 | 10801 ft | 354 kts | 292° |
| 2026-05-06 13:15 | 55.27303 | 81.94549 | 11096 ft | 362 kts | 293° |
| 2026-05-06 13:15 | 55.28305 | 81.90474 | 11555 ft | 365 kts | 293° |
| 2026-05-06 13:15 | 55.29313 | 81.86368 | 12035 ft | 368 kts | 293° |
| 2026-05-06 13:16 | 55.30323 | 81.82229 | 12534 ft | 370 kts | 293° |
| 2026-05-06 13:16 | 55.31326 | 81.78108 | 13014 ft | 373 kts | 293° |
| 2026-05-06 13:16 | 55.32348 | 81.73906 | 13495 ft | 375 kts | 293° |
| 2026-05-06 13:16 | 55.33375 | 81.69684 | 13932 ft | 378 kts | 293° |
| 2026-05-06 13:17 | 55.34411 | 81.65427 | 14343 ft | 380 kts | 294° |
| 2026-05-06 13:17 | 55.35454 | 81.61139 | 14756 ft | 382 kts | 293° |
| 2026-05-06 13:17 | 55.36490 | 81.56836 | 15168 ft | 383 kts | 293° |
| 2026-05-06 13:17 | 55.37531 | 81.52510 | 15583 ft | 385 kts | 293° |
| 2026-05-06 13:18 | 55.38576 | 81.48165 | 15983 ft | 387 kts | 293° |
| 2026-05-06 13:18 | 55.39622 | 81.43794 | 16387 ft | 389 kts | 293° |
| 2026-05-06 13:18 | 55.40676 | 81.39407 | 16797 ft | 390 kts | 293° |
| 2026-05-06 13:18 | 55.41735 | 81.34993 | 17194 ft | 392 kts | 293° |
| 2026-05-06 13:19 | 55.42800 | 81.30560 | 17607 ft | 394 kts | 293° |
| 2026-05-06 13:19 | 55.43864 | 81.26108 | 17992 ft | 395 kts | 292° |
| 2026-05-06 13:19 | 55.44928 | 81.21633 | 18348 ft | 397 kts | 292° |
| 2026-05-06 13:19 | 55.45997 | 81.17137 | 18674 ft | 399 kts | 292° |
| 2026-05-06 13:20 | 55.46988 | 81.12563 | 18973 ft | 402 kts | 287° |
| 2026-05-06 13:20 | 55.47686 | 81.07761 | 19208 ft | 406 kts | 285° |
| 2026-05-06 13:20 | 55.48355 | 81.02915 | 19502 ft | 408 kts | 285° |
| 2026-05-06 13:20 | 55.49029 | 80.98038 | 19813 ft | 410 kts | 285° |
| 2026-05-06 13:21 | 55.49703 | 80.93134 | 20135 ft | 412 kts | 285° |
| 2026-05-06 13:21 | 55.50379 | 80.88213 | 20467 ft | 414 kts | 285° |
| 2026-05-06 13:21 | 55.51054 | 80.83269 | 20798 ft | 415 kts | 285° |
| 2026-05-06 13:21 | 55.51730 | 80.78308 | 21122 ft | 417 kts | 285° |
| 2026-05-06 13:22 | 55.52405 | 80.73329 | 21437 ft | 418 kts | 285° |
| 2026-05-06 13:22 | 55.53082 | 80.68328 | 21752 ft | 420 kts | 285° |
| 2026-05-06 13:22 | 55.53759 | 80.63308 | 22069 ft | 421 kts | 285° |
| 2026-05-06 13:22 | 55.54436 | 80.58268 | 22384 ft | 423 kts | 285° |
| 2026-05-06 13:23 | 55.55106 | 80.53274 | 22692 ft | 424 kts | 285° |
| 2026-05-06 13:23 | 55.55794 | 80.48127 | 22971 ft | 426 kts | 285° |
| 2026-05-06 13:23 | 55.56475 | 80.43026 | 23294 ft | 427 kts | 286° |
| 2026-05-06 13:23 | 55.57147 | 80.37977 | 23581 ft | 428 kts | 286° |
| 2026-05-06 13:24 | 55.57827 | 80.32849 | 23834 ft | 429 kts | 286° |
| 2026-05-06 13:24 | 55.58505 | 80.27702 | 24073 ft | 431 kts | 286° |
| 2026-05-06 13:24 | 55.59185 | 80.22531 | 24312 ft | 432 kts | 285° |
| 2026-05-06 13:24 | 55.59861 | 80.17350 | 24543 ft | 433 kts | 285° |
| 2026-05-06 13:25 | 55.60538 | 80.12152 | 24779 ft | 435 kts | 285° |
| 2026-05-06 13:25 | 55.61218 | 80.06930 | 25009 ft | 436 kts | 285° |
| 2026-05-06 13:25 | 55.61895 | 80.01700 | 25232 ft | 437 kts | 285° |
| 2026-05-06 13:25 | 55.62586 | 79.96453 | 25458 ft | 437 kts | 288° |
| 2026-05-06 13:26 | 55.63601 | 79.91395 | 25673 ft | 436 kts | 297° |
| 2026-05-06 13:26 | 55.65059 | 79.86709 | 25867 ft | 434 kts | 306° |
| 2026-05-06 13:26 | 55.66894 | 79.82507 | 26198 ft | 430 kts | 312° |
| 2026-05-06 13:26 | 55.68814 | 79.78444 | 26531 ft | 429 kts | 311° |
| 2026-05-06 13:27 | 55.70720 | 79.74382 | 26833 ft | 428 kts | 311° |
| 2026-05-06 13:27 | 55.72620 | 79.70314 | 27140 ft | 427 kts | 311° |
| 2026-05-06 13:27 | 55.74508 | 79.66253 | 27444 ft | 427 kts | 311° |
| 2026-05-06 13:27 | 55.76397 | 79.62191 | 27751 ft | 426 kts | 311° |
| 2026-05-06 13:28 | 55.78281 | 79.58143 | 28060 ft | 425 kts | 311° |
| 2026-05-06 13:28 | 55.80161 | 79.54093 | 28356 ft | 424 kts | 311° |
| 2026-05-06 13:28 | 55.82039 | 79.50043 | 28647 ft | 423 kts | 310° |
| 2026-05-06 13:28 | 55.83909 | 79.46006 | 28933 ft | 423 kts | 310° |
| 2026-05-06 13:29 | 55.85755 | 79.42028 | 29209 ft | 422 kts | 310° |
| 2026-05-06 13:29 | 55.87644 | 79.37948 | 29463 ft | 422 kts | 311° |
| 2026-05-06 13:29 | 55.89510 | 79.33910 | 29716 ft | 422 kts | 311° |
| 2026-05-06 13:29 | 55.91348 | 79.29920 | 29977 ft | 421 kts | 310° |
| 2026-05-06 13:30 | 55.93203 | 79.25872 | 30203 ft | 421 kts | 310° |
| 2026-05-06 13:30 | 55.95050 | 79.21830 | 30423 ft | 420 kts | 310° |
| 2026-05-06 13:30 | 55.96896 | 79.17793 | 30611 ft | 420 kts | 310° |
| 2026-05-06 13:30 | 55.98744 | 79.13749 | 30832 ft | 419 kts | 310° |
| 2026-05-06 13:31 | 56.00585 | 79.09716 | 31034 ft | 419 kts | 310° |
| 2026-05-06 13:31 | 56.02425 | 79.05685 | 31247 ft | 419 kts | 309° |
| 2026-05-06 13:31 | 56.04263 | 79.01651 | 31451 ft | 418 kts | 309° |
| 2026-05-06 13:31 | 56.06117 | 78.97577 | 31661 ft | 418 kts | 309° |
| 2026-05-06 13:32 | 56.07949 | 78.93540 | 31869 ft | 417 kts | 309° |
| 2026-05-06 13:32 | 56.09774 | 78.89513 | 32072 ft | 417 kts | 309° |
| 2026-05-06 13:32 | 56.11599 | 78.85476 | 32277 ft | 416 kts | 309° |
| 2026-05-06 13:32 | 56.13411 | 78.81456 | 32467 ft | 416 kts | 309° |
| 2026-05-06 13:33 | 56.15214 | 78.77449 | 32660 ft | 416 kts | 309° |
| 2026-05-06 13:33 | 56.17022 | 78.73425 | 32853 ft | 415 kts | 309° |
| 2026-05-06 13:33 | 56.18851 | 78.69350 | 33045 ft | 415 kts | 309° |
| 2026-05-06 13:33 | 56.20657 | 78.65322 | 33227 ft | 414 kts | 309° |
| 2026-05-06 13:34 | 56.22468 | 78.61287 | 33408 ft | 414 kts | 308° |
| 2026-05-06 13:34 | 56.24279 | 78.57241 | 33583 ft | 414 kts | 308° |
| 2026-05-06 13:34 | 56.26061 | 78.53251 | 33763 ft | 414 kts | 308° |
| 2026-05-06 13:34 | 56.27874 | 78.49181 | 33920 ft | 413 kts | 308° |
| 2026-05-06 13:35 | 56.29652 | 78.45179 | 34048 ft | 413 kts | 308° |
| 2026-05-06 13:35 | 56.31455 | 78.41110 | 34168 ft | 413 kts | 308° |
| 2026-05-06 13:35 | 56.33185 | 78.37006 | 34284 ft | 413 kts | 302° |
| 2026-05-06 13:35 | 56.34559 | 78.32502 | 34401 ft | 413 kts | 294° |
| 2026-05-06 13:36 | 56.35650 | 78.27700 | 34520 ft | 413 kts | 293° |
| 2026-05-06 13:36 | 56.36739 | 78.22891 | 34631 ft | 413 kts | 293° |
| 2026-05-06 13:36 | 56.37837 | 78.18091 | 34754 ft | 412 kts | 293° |
| 2026-05-06 13:36 | 56.38927 | 78.13330 | 34871 ft | 412 kts | 293° |
| 2026-05-06 13:37 | 56.40010 | 78.08580 | 34993 ft | 411 kts | 293° |
| 2026-05-06 13:37 | 56.41105 | 78.03771 | 35115 ft | 411 kts | 293° |
| 2026-05-06 13:37 | 56.42186 | 77.99001 | 35232 ft | 410 kts | 293° |
| 2026-05-06 13:37 | 56.43261 | 77.94234 | 35354 ft | 409 kts | 293° |
| 2026-05-06 13:38 | 56.44329 | 77.89485 | 35480 ft | 408 kts | 292° |
| 2026-05-06 13:38 | 56.45393 | 77.84739 | 35592 ft | 407 kts | 292° |
| 2026-05-06 13:38 | 56.46443 | 77.80042 | 35723 ft | 405 kts | 292° |
| 2026-05-06 13:38 | 56.47506 | 77.75289 | 35886 ft | 403 kts | 292° |
| 2026-05-06 13:39 | 56.48546 | 77.70611 | 35954 ft | 403 kts | 292° |
| 2026-05-06 13:39 | 56.50630 | 77.61173 | 35964 ft | 407 kts | 292° |
| 2026-05-06 13:40 | 56.52735 | 77.51616 | 35967 ft | 410 kts | 292° |
| 2026-05-06 13:40 | 56.54866 | 77.41941 | 35968 ft | 414 kts | 292° |
| 2026-05-06 13:41 | 56.56982 | 77.32228 | 35971 ft | 418 kts | 292° |
| 2026-05-06 13:41 | 56.59078 | 77.22359 | 35969 ft | 419 kts | 291° |
| 2026-05-06 13:42 | 56.61167 | 77.12463 | 35956 ft | 420 kts | 291° |
| 2026-05-06 13:42 | 56.63261 | 77.02562 | 35970 ft | 420 kts | 291° |
| 2026-05-06 13:43 | 56.65343 | 76.92664 | 35980 ft | 420 kts | 291° |
| 2026-05-06 13:43 | 56.67417 | 76.82732 | 35987 ft | 420 kts | 291° |
| 2026-05-06 13:44 | 56.69480 | 76.72772 | 36000 ft | 420 kts | 291° |
| 2026-05-06 13:44 | 56.71543 | 76.62838 | 35997 ft | 419 kts | 291° |
| 2026-05-06 13:45 | 56.73589 | 76.52910 | 35992 ft | 419 kts | 291° |
| 2026-05-06 13:45 | 56.76635 | 76.38071 | 35982 ft | 418 kts | 291° |
| 2026-05-06 13:46 | 56.78664 | 76.28154 | 35986 ft | 417 kts | 291° |
| 2026-05-06 13:46 | 56.80681 | 76.18210 | 35986 ft | 417 kts | 291° |
| 2026-05-06 13:47 | 56.82669 | 76.08269 | 35984 ft | 417 kts | 290° |
| 2026-05-06 13:47 | 56.84654 | 75.98317 | 35983 ft | 417 kts | 290° |
| 2026-05-06 13:48 | 56.86642 | 75.88369 | 36004 ft | 417 kts | 290° |
| 2026-05-06 13:48 | 56.88628 | 75.78399 | 35984 ft | 416 kts | 290° |
| 2026-05-06 13:49 | 56.90593 | 75.68438 | 35986 ft | 416 kts | 290° |
| 2026-05-06 13:49 | 56.92545 | 75.58472 | 35988 ft | 416 kts | 290° |
| 2026-05-06 13:50 | 56.94163 | 75.50197 | 35991 ft | 415 kts | 290° |
| 2026-05-06 13:50 | 56.96423 | 75.38610 | 35984 ft | 415 kts | 290° |
| 2026-05-06 13:51 | 56.98038 | 75.30250 | 35986 ft | 415 kts | 290° |
| 2026-05-06 13:51 | 56.99955 | 75.20273 | 35989 ft | 415 kts | 290° |
| 2026-05-06 13:52 | 57.01861 | 75.10364 | 35972 ft | 414 kts | 289° |
| 2026-05-06 13:52 | 57.03764 | 75.00382 | 35988 ft | 414 kts | 289° |
| 2026-05-06 13:53 | 57.05666 | 74.90403 | 35985 ft | 413 kts | 289° |
| 2026-05-06 13:53 | 57.07548 | 74.80421 | 35983 ft | 413 kts | 289° |
| 2026-05-06 13:54 | 57.09423 | 74.70434 | 35981 ft | 413 kts | 289° |
| 2026-05-06 13:54 | 57.11285 | 74.60453 | 35977 ft | 412 kts | 289° |
| 2026-05-06 13:55 | 57.13131 | 74.50466 | 35975 ft | 412 kts | 289° |
| 2026-05-06 13:55 | 57.14973 | 74.40469 | 35961 ft | 412 kts | 289° |
| 2026-05-06 13:56 | 57.16810 | 74.30475 | 35965 ft | 412 kts | 289° |
| 2026-05-06 13:56 | 57.18638 | 74.20464 | 35968 ft | 412 kts | 289° |
| 2026-05-06 13:57 | 57.20461 | 74.10458 | 35984 ft | 411 kts | 289° |
| 2026-05-06 13:57 | 57.22264 | 74.00517 | 35977 ft | 411 kts | 288° |
| 2026-05-06 13:58 | 57.24070 | 73.90520 | 35970 ft | 411 kts | 288° |
| 2026-05-06 13:58 | 57.25862 | 73.80502 | 35967 ft | 410 kts | 288° |
| 2026-05-06 13:59 | 57.27632 | 73.70479 | 35950 ft | 410 kts | 288° |
| 2026-05-06 13:59 | 57.29403 | 73.60471 | 35955 ft | 410 kts | 288° |
| 2026-05-06 14:00 | 57.31190 | 73.50435 | 35951 ft | 410 kts | 288° |
| 2026-05-06 14:00 | 57.32988 | 73.40372 | 35955 ft | 410 kts | 288° |
| 2026-05-06 14:01 | 57.34746 | 73.30395 | 35953 ft | 410 kts | 288° |
| 2026-05-06 14:01 | 57.36498 | 73.20315 | 35967 ft | 410 kts | 288° |
| 2026-05-06 14:02 | 57.38239 | 73.10273 | 35965 ft | 410 kts | 288° |
| 2026-05-06 14:02 | 57.39969 | 73.00214 | 35955 ft | 409 kts | 288° |
| 2026-05-06 14:03 | 57.41714 | 72.90106 | 35948 ft | 409 kts | 288° |
| 2026-05-06 14:03 | 57.43448 | 72.80073 | 35940 ft | 410 kts | 288° |
| 2026-05-06 14:04 | 57.45163 | 72.69991 | 35944 ft | 410 kts | 287° |
| 2026-05-06 14:04 | 57.46861 | 72.59884 | 35944 ft | 410 kts | 287° |
| 2026-05-06 14:05 | 57.48555 | 72.49792 | 35934 ft | 410 kts | 287° |
| 2026-05-06 14:05 | 57.50252 | 72.39659 | 35930 ft | 410 kts | 287° |
| 2026-05-06 14:06 | 57.51927 | 72.29579 | 35930 ft | 410 kts | 287° |
| 2026-05-06 14:06 | 57.53599 | 72.19454 | 35926 ft | 410 kts | 287° |
| 2026-05-06 14:07 | 57.55277 | 72.09270 | 35923 ft | 410 kts | 287° |
| 2026-05-06 14:07 | 57.56934 | 71.99134 | 35922 ft | 411 kts | 287° |
| 2026-05-06 14:08 | 57.58596 | 71.88868 | 35920 ft | 411 kts | 287° |
| 2026-05-06 14:08 | 57.60231 | 71.78712 | 35920 ft | 411 kts | 287° |
| 2026-05-06 14:09 | 57.61880 | 71.68511 | 35915 ft | 411 kts | 287° |
| 2026-05-06 14:09 | 57.63524 | 71.58271 | 35911 ft | 411 kts | 286° |
| 2026-05-06 14:10 | 57.65145 | 71.47997 | 35904 ft | 412 kts | 286° |
| 2026-05-06 14:10 | 57.66755 | 71.37736 | 35922 ft | 412 kts | 286° |
| 2026-05-06 14:11 | 57.68363 | 71.27482 | 35924 ft | 412 kts | 285° |
| 2026-05-06 14:11 | 57.69955 | 71.17198 | 35923 ft | 412 kts | 285° |
| 2026-05-06 14:12 | 57.71603 | 71.06950 | 35923 ft | 412 kts | 287° |
| 2026-05-06 14:12 | 57.73313 | 70.96762 | 35918 ft | 412 kts | 287° |
| 2026-05-06 14:13 | 57.75018 | 70.86521 | 35914 ft | 412 kts | 287° |
| 2026-05-06 14:13 | 57.76698 | 70.76223 | 35914 ft | 412 kts | 286° |
| 2026-05-06 14:14 | 57.78343 | 70.65997 | 35908 ft | 412 kts | 286° |
| 2026-05-06 14:14 | 57.80005 | 70.55683 | 35905 ft | 412 kts | 286° |
| 2026-05-06 14:15 | 57.81646 | 70.45393 | 35904 ft | 412 kts | 286° |